Time;durP1;ratioP1;P1;durP2;ratioP2;P2;SDS_P1;SDS_P2;PMS_P1;PMS_P2;Temp;Humidity;BMP_temperature;BMP_pressure;BME280_temperature;BME280_humidity;BME280_pressure;Samples;Min_cycle;Max_cycle;Signal;HPM_P1;HPM_P2
2022/04/12 00:01:49;;;;;;;;;;;6.80;99.90;;;;;;4972875;28;20281;-77
2022/04/12 00:04:14;;;;;;;;;;;6.80;99.90;;;;;;4975003;28;19974;-77
2022/04/12 00:06:40;;;;;;;;;;;6.70;99.90;;;;;;4975048;28;20281;-77
2022/04/12 00:09:05;;;;;;;;;;;6.70;99.90;;;;;;4974837;28;19929;-77
2022/04/12 00:11:31;;;;;;;;;;;6.70;99.90;;;;;;4973033;28;19926;-77
2022/04/12 00:13:56;;;;;;;;;;;6.70;99.90;;;;;;4974865;28;20363;-77
2022/04/12 00:16:22;;;;;;;;;;;6.60;99.90;;;;;;4975166;28;19926;-77
2022/04/12 00:19:02;;;;;;;;;;;6.60;99.90;;;;;;4992133;28;19929;-77
2022/04/12 00:21:28;;;;;;;;;;;6.60;99.90;;;;;;4966951;28;20315;-77
2022/04/12 00:23:53;;;;;;;;;;;6.60;99.90;;;;;;4956836;28;19996;-77
2022/04/12 00:26:19;;;;;;;;;;;6.60;99.90;;;;;;4973576;28;19938;-77
2022/04/12 00:28:44;;;;;;;;;;;6.60;99.90;;;;;;4973736;28;19929;-77
2022/04/12 00:31:10;;;;;;;;;;;6.60;99.90;;;;;;4969499;28;19973;-78
2022/04/12 00:33:35;;;;;;;;;;;6.60;99.90;;;;;;4970436;28;20307;-77
2022/04/12 00:36:02;;;;;;;;;;;6.50;99.90;;;;;;4973978;28;19969;-77
2022/04/12 00:38:33;;;;;;;;;;;6.50;99.90;;;;;;4975012;28;20173;-77
2022/04/12 00:41:04;;;;;;;;;;;6.50;99.90;;;;;;4974304;28;19933;-77
2022/04/12 00:43:32;;;;;;;;;;;6.40;99.90;;;;;;4974317;28;19921;-77
2022/04/12 00:46:00;;;;;;;;;;;6.40;99.90;;;;;;4974692;28;20008;-77
2022/04/12 00:48:26;;;;;;;;;;;6.40;99.90;;;;;;4992025;28;19925;-77
2022/04/12 00:50:52;;;;;;;;;;;6.30;99.90;;;;;;4973962;28;19925;-77
2022/04/12 00:53:17;;;;;;;;;;;6.30;99.90;;;;;;4966799;28;20048;-77
2022/04/12 00:55:43;;;;;;;;;;;6.30;99.90;;;;;;4974507;28;19922;-77
2022/04/12 00:58:08;;;;;;;;;;;6.30;99.90;;;;;;4974531;28;19934;-77
2022/04/12 01:00:34;;;;;;;;;;;6.30;99.90;;;;;;4974215;28;19922;-77
2022/04/12 01:03:00;;;;;;;;;;;6.20;99.90;;;;;;4976925;28;20392;-77
2022/04/12 01:05:27;;;;;;;;;;;6.20;99.90;;;;;;4977930;28;19929;-77
2022/04/12 01:07:52;;;;;;;;;;;6.20;99.90;;;;;;4978032;28;19943;-77
2022/04/12 01:10:19;;;;;;;;;;;6.20;99.90;;;;;;4977865;28;19926;-77
2022/04/12 01:12:46;;;;;;;;;;;6.10;99.90;;;;;;4977209;28;20344;-77
2022/04/12 01:15:16;;;;;;;;;;;6.10;99.90;;;;;;4977185;28;20013;-77
2022/04/12 01:17:43;;;;;;;;;;;6.10;99.90;;;;;;4976741;28;20431;-77
2022/04/12 01:20:08;;;;;;;;;;;6.10;99.90;;;;;;4977711;28;19922;-77
2022/04/12 01:22:35;;;;;;;;;;;6.10;99.90;;;;;;4969498;28;19922;-77
2022/04/12 01:25:01;;;;;;;;;;;6.10;99.90;;;;;;4977401;28;19922;-77
2022/04/12 01:27:27;;;;;;;;;;;6.10;99.90;;;;;;4977809;28;19985;-77
2022/04/12 01:29:53;;;;;;;;;;;6.10;99.90;;;;;;4977692;28;19941;-77
2022/04/12 01:32:18;;;;;;;;;;;6.10;99.90;;;;;;4967284;28;20308;-78
2022/04/12 01:34:44;;;;;;;;;;;6.10;99.90;;;;;;4975396;28;19984;-77
2022/04/12 01:37:09;;;;;;;;;;;6.00;99.90;;;;;;4993720;28;19929;-77
2022/04/12 01:39:35;;;;;;;;;;;6.00;99.90;;;;;;4977481;28;20404;-77
2022/04/12 01:42:00;;;;;;;;;;;5.90;99.90;;;;;;4970678;28;19926;-77
2022/04/12 01:44:26;;;;;;;;;;;5.90;99.90;;;;;;4961414;28;20288;-77
2022/04/12 01:46:52;;;;;;;;;;;5.80;99.90;;;;;;4977222;28;19922;-77
2022/04/12 01:49:17;;;;;;;;;;;5.80;99.90;;;;;;4977141;28;19944;-76
2022/04/12 01:51:43;;;;;;;;;;;5.80;99.90;;;;;;4975521;28;20032;-77
2022/04/12 01:54:08;;;;;;;;;;;5.70;99.90;;;;;;4977151;28;20303;-77
2022/04/12 01:56:34;;;;;;;;;;;5.80;99.90;;;;;;4976952;28;19922;-77
2022/04/12 01:59:00;;;;;;;;;;;5.80;99.90;;;;;;4977439;28;20013;-77
2022/04/12 02:01:25;;;;;;;;;;;5.80;99.90;;;;;;4976226;28;19922;-77
2022/04/12 02:03:51;;;;;;;;;;;5.80;99.90;;;;;;4976597;28;20353;-77
2022/04/12 02:06:16;;;;;;;;;;;5.70;99.90;;;;;;4976872;28;19922;-77
2022/04/12 02:08:43;;;;;;;;;;;5.60;99.90;;;;;;4976145;28;19922;-77
2022/04/12 02:11:09;;;;;;;;;;;5.60;99.90;;;;;;4971981;28;20024;-77
2022/04/12 02:13:34;;;;;;;;;;;5.50;99.90;;;;;;4972557;28;19993;-77
2022/04/12 02:16:00;;;;;;;;;;;5.40;99.90;;;;;;4976725;28;19929;-77
2022/04/12 02:18:25;;;;;;;;;;;5.40;99.90;;;;;;4976778;28;20000;-77
2022/04/12 02:20:51;;;;;;;;;;;5.40;99.90;;;;;;4975862;28;19922;-77
2022/04/12 02:23:16;;;;;;;;;;;5.30;99.90;;;;;;4976599;28;19928;-77
2022/04/12 02:25:41;;;;;;;;;;;5.30;99.90;;;;;;4976570;28;19922;-77
2022/04/12 02:28:07;;;;;;;;;;;5.30;99.90;;;;;;4976586;28;19944;-77
2022/04/12 02:30:32;;;;;;;;;;;5.20;99.90;;;;;;4976575;28;19965;-77
2022/04/12 02:32:59;;;;;;;;;;;5.20;99.90;;;;;;4975325;28;19930;-77
2022/04/12 02:35:25;;;;;;;;;;;5.20;99.90;;;;;;4975658;28;19922;-77
2022/04/12 02:37:50;;;;;;;;;;;5.20;99.90;;;;;;4976087;28;19928;-77
2022/04/12 02:40:17;;;;;;;;;;;5.20;99.90;;;;;;4976238;28;20393;-77
2022/04/12 02:42:43;;;;;;;;;;;5.20;99.90;;;;;;4975565;28;20292;-77
2022/04/12 02:45:08;;;;;;;;;;;5.30;99.90;;;;;;4976067;28;19937;-77
2022/04/12 02:47:34;;;;;;;;;;;5.30;99.90;;;;;;4992689;28;19969;-77
2022/04/12 02:49:59;;;;;;;;;;;5.30;99.90;;;;;;4976011;28;19926;-77
2022/04/12 02:52:25;;;;;;;;;;;5.30;99.90;;;;;;4969317;28;19929;-77
2022/04/12 02:54:50;;;;;;;;;;;5.30;99.90;;;;;;4973877;28;19922;-77
2022/04/12 02:57:16;;;;;;;;;;;5.30;99.90;;;;;;4975563;28;20000;-77
2022/04/12 02:59:41;;;;;;;;;;;5.30;99.90;;;;;;4975977;28;20191;-77
2022/04/12 03:02:07;;;;;;;;;;;5.30;99.90;;;;;;4971263;28;19922;-77
2022/04/12 03:04:32;;;;;;;;;;;5.20;99.90;;;;;;4971821;28;19929;-77
2022/04/12 03:06:58;;;;;;;;;;;5.20;99.90;;;;;;4974165;28;20371;-77
2022/04/12 03:09:23;;;;;;;;;;;5.10;99.90;;;;;;4975746;28;20327;-77
2022/04/12 03:11:49;;;;;;;;;;;5.10;99.90;;;;;;4975440;28;20033;-77
2022/04/12 03:14:14;;;;;;;;;;;5.10;99.90;;;;;;4975791;28;19922;-77
2022/04/12 03:16:40;;;;;;;;;;;5.20;99.90;;;;;;4978307;28;19929;-76
2022/04/12 03:19:05;;;;;;;;;;;5.20;99.90;;;;;;4978642;28;20391;-77
2022/04/12 03:21:31;;;;;;;;;;;5.20;99.90;;;;;;4977503;28;19957;-77
2022/04/12 03:23:56;;;;;;;;;;;5.30;99.90;;;;;;4969822;28;19922;-77
2022/04/12 03:26:22;;;;;;;;;;;5.30;99.90;;;;;;4977952;28;19971;-77
2022/04/12 03:28:47;;;;;;;;;;;5.20;99.90;;;;;;4977595;28;19977;-77
2022/04/12 03:31:12;;;;;;;;;;;5.10;99.90;;;;;;4975496;28;19934;-77
2022/04/12 03:33:38;;;;;;;;;;;5.10;99.90;;;;;;4969281;28;19944;-77
2022/04/12 03:36:04;;;;;;;;;;;5.00;99.90;;;;;;4993105;28;19952;-77
2022/04/12 03:38:29;;;;;;;;;;;5.00;99.90;;;;;;4977513;28;19922;-77
2022/04/12 03:40:58;;;;;;;;;;;5.00;99.90;;;;;;4975394;28;20353;-77
2022/04/12 03:43:24;;;;;;;;;;;5.00;99.90;;;;;;4970003;28;20415;-77
2022/04/12 03:45:49;;;;;;;;;;;5.00;99.90;;;;;;4974504;28;19926;-77
2022/04/12 03:48:15;;;;;;;;;;;5.00;99.90;;;;;;4974436;28;20018;-77
2022/04/12 03:50:40;;;;;;;;;;;5.10;99.90;;;;;;4975117;28;19926;-77
2022/04/12 03:53:06;;;;;;;;;;;5.10;99.90;;;;;;4987115;28;20439;-77
2022/04/12 03:55:31;;;;;;;;;;;5.10;99.90;;;;;;4991116;28;20435;-77
2022/04/12 03:57:58;;;;;;;;;;;5.10;99.90;;;;;;4975094;28;19970;-77
2022/04/12 04:00:23;;;;;;;;;;;5.10;99.90;;;;;;4959015;28;19922;-77
2022/04/12 04:02:49;;;;;;;;;;;5.10;99.90;;;;;;4966040;28;19929;-77
2022/04/12 04:05:14;;;;;;;;;;;5.10;99.90;;;;;;4974875;28;19922;-77
2022/04/12 04:07:40;;;;;;;;;;;5.20;99.90;;;;;;4975128;28;19922;-77
2022/04/12 04:10:05;;;;;;;;;;;5.20;99.90;;;;;;4974824;28;19957;-77
2022/04/12 04:12:31;;;;;;;;;;;5.20;99.90;;;;;;4974518;28;19922;-77
2022/04/12 04:14:56;;;;;;;;;;;5.20;99.90;;;;;;4990747;28;19967;-77
2022/04/12 04:17:22;;;;;;;;;;;5.30;99.90;;;;;;4974598;28;19988;-78
2022/04/12 04:19:47;;;;;;;;;;;5.30;99.90;;;;;;4974877;28;19922;-77
2022/04/12 04:22:13;;;;;;;;;;;5.30;99.90;;;;;;4973185;28;19948;-77
2022/04/12 04:24:38;;;;;;;;;;;5.40;99.90;;;;;;4975191;28;19965;-77
2022/04/12 04:27:05;;;;;;;;;;;5.40;99.90;;;;;;4974616;28;19990;-77
2022/04/12 04:29:33;;;;;;;;;;;5.50;99.90;;;;;;4973280;28;20016;-77
2022/04/12 04:31:58;;;;;;;;;;;5.60;99.90;;;;;;4971139;28;19925;-77
2022/04/12 04:34:24;;;;;;;;;;;5.60;99.90;;;;;;4968949;28;19921;-77
2022/04/12 04:36:50;;;;;;;;;;;5.60;99.90;;;;;;4975037;28;19921;-77
2022/04/12 04:39:15;;;;;;;;;;;5.60;99.90;;;;;;4995017;28;20288;-77
2022/04/12 04:41:41;;;;;;;;;;;5.50;99.90;;;;;;4977511;28;19921;-77
2022/04/12 04:44:07;;;;;;;;;;;5.50;99.90;;;;;;4978242;28;19922;-76
2022/04/12 04:46:33;;;;;;;;;;;5.50;99.90;;;;;;4978369;28;20308;-77
2022/04/12 04:48:58;;;;;;;;;;;5.40;99.90;;;;;;4974189;28;19926;-77
2022/04/12 04:51:24;;;;;;;;;;;5.40;99.90;;;;;;4971753;28;19973;-77
2022/04/12 04:53:57;;;;;;;;;;;5.30;99.90;;;;;;4970456;28;19929;-77
2022/04/12 04:56:23;;;;;;;;;;;5.30;99.90;;;;;;4978212;28;20005;-77
2022/04/12 04:58:48;;;;;;;;;;;5.30;99.90;;;;;;4978679;28;20403;-77
2022/04/12 05:01:14;;;;;;;;;;;5.20;99.90;;;;;;4978271;28;20021;-77
2022/04/12 05:03:39;;;;;;;;;;;5.20;99.90;;;;;;4969086;28;19922;-78
2022/04/12 05:06:05;;;;;;;;;;;5.20;99.90;;;;;;4978323;28;20277;-77
2022/04/12 05:08:30;;;;;;;;;;;5.20;99.90;;;;;;4978370;28;20017;-77
2022/04/12 05:10:56;;;;;;;;;;;5.20;99.90;;;;;;4974824;28;20415;-77
2022/04/12 05:13:21;;;;;;;;;;;5.20;99.90;;;;;;4977913;28;19929;-77
2022/04/12 05:15:46;;;;;;;;;;;5.10;99.90;;;;;;4977936;28;19922;-77
2022/04/12 05:18:12;;;;;;;;;;;5.10;99.90;;;;;;4977961;28;20470;-77
2022/04/12 05:20:38;;;;;;;;;;;5.10;99.90;;;;;;4978128;28;19964;-77
2022/04/12 05:23:03;;;;;;;;;;;5.20;99.90;;;;;;4977861;28;19922;-77
2022/04/12 05:25:29;;;;;;;;;;;5.20;99.90;;;;;;4977469;28;20037;-77
2022/04/12 05:27:55;;;;;;;;;;;5.20;99.90;;;;;;4961369;28;19944;-77
2022/04/12 05:30:21;;;;;;;;;;;5.20;99.90;;;;;;4977786;28;20355;-78
2022/04/12 05:32:47;;;;;;;;;;;5.20;99.90;;;;;;4977749;28;20176;-77
2022/04/12 05:35:13;;;;;;;;;;;5.20;99.90;;;;;;5002036;23;20008;-80
2022/04/12 05:37:45;;;;;;;;;;;5.20;99.90;;;;;;4966383;28;19985;-80
2022/04/12 05:40:11;;;;;;;;;;;5.30;99.90;;;;;;4983420;28;19928;-80
2022/04/12 05:42:37;;;;;;;;;;;5.40;99.90;;;;;;4983056;28;19921;-80
2022/04/12 05:45:03;;;;;;;;;;;5.50;99.90;;;;;;4983034;28;19922;-80
2022/04/12 05:47:28;;;;;;;;;;;5.60;99.90;;;;;;4982526;28;19922;-80
2022/04/12 05:49:54;;;;;;;;;;;5.70;99.90;;;;;;4983674;28;20449;-80
2022/04/12 05:52:19;;;;;;;;;;;5.90;99.90;;;;;;4983865;28;19945;-80
2022/04/12 05:54:45;;;;;;;;;;;6.10;99.90;;;;;;4983451;28;20470;-80
2022/04/12 05:57:10;;;;;;;;;;;6.30;99.90;;;;;;4983533;28;20016;-80
2022/04/12 05:59:36;;;;;;;;;;;6.50;99.90;;;;;;4984665;28;19921;-80
2022/04/12 06:02:01;;;;;;;;;;;6.70;99.90;;;;;;4981501;28;19922;-77
2022/04/12 06:04:27;;;;;;;;;;;6.90;99.90;;;;;;4978125;28;20295;-79
2022/04/12 06:06:52;;;;;;;;;;;7.10;99.90;;;;;;4978826;28;19922;-79
2022/04/12 06:09:18;;;;;;;;;;;7.20;99.90;;;;;;4964268;28;19921;-80
2022/04/12 06:11:43;;;;;;;;;;;7.30;99.90;;;;;;4979286;28;19926;-79
2022/04/12 06:14:08;;;;;;;;;;;7.30;99.90;;;;;;4978476;28;19922;-79
2022/04/12 06:16:34;;;;;;;;;;;7.30;99.90;;;;;;4979272;28;19926;-79
2022/04/12 06:19:00;;;;;;;;;;;7.40;99.90;;;;;;4981060;28;20327;-78
2022/04/12 06:21:25;;;;;;;;;;;7.50;99.90;;;;;;4976643;28;19921;-78
2022/04/12 06:23:51;;;;;;;;;;;7.50;99.90;;;;;;4976459;28;19921;-78
2022/04/12 06:26:17;;;;;;;;;;;7.50;99.90;;;;;;4976341;28;19922;-78
2022/04/12 06:28:42;;;;;;;;;;;7.60;99.90;;;;;;4976026;28;20392;-78
2022/04/12 06:31:08;;;;;;;;;;;7.60;99.90;;;;;;4976271;28;19926;-78
2022/04/12 06:33:33;;;;;;;;;;;7.60;99.90;;;;;;4984718;28;20037;-80
2022/04/12 06:35:59;;;;;;;;;;;7.60;99.90;;;;;;4984650;28;19926;-80
2022/04/12 06:38:24;;;;;;;;;;;7.70;99.90;;;;;;4984031;28;20387;-80
2022/04/12 06:40:50;;;;;;;;;;;7.70;99.90;;;;;;4985087;28;19985;-80
2022/04/12 06:43:16;;;;;;;;;;;7.80;99.90;;;;;;4984880;28;19922;-80
2022/04/12 06:45:41;;;;;;;;;;;7.90;99.90;;;;;;4984760;28;19922;-80
2022/04/12 06:48:07;;;;;;;;;;;7.90;99.90;;;;;;5002325;28;19922;-80
2022/04/12 06:50:33;;;;;;;;;;;8.00;99.90;;;;;;4984424;28;20015;-80
2022/04/12 06:52:59;;;;;;;;;;;8.10;99.90;;;;;;4981907;28;19922;-78
2022/04/12 06:55:25;;;;;;;;;;;8.10;99.90;;;;;;4976126;28;19926;-78
2022/04/12 06:57:51;;;;;;;;;;;8.20;99.90;;;;;;4975742;28;19965;-78
2022/04/12 07:00:17;;;;;;;;;;;8.30;99.90;;;;;;4974753;28;19995;-78
2022/04/12 07:02:43;;;;;;;;;;;8.30;99.90;;;;;;4975715;28;19929;-77
2022/04/12 07:05:08;;;;;;;;;;;8.40;99.90;;;;;;4975653;28;19921;-78
2022/04/12 07:07:37;;;;;;;;;;;8.50;99.90;;;;;;4975472;28;19968;-78
2022/04/12 07:10:04;;;;;;;;;;;8.50;99.90;;;;;;4975568;28;20028;-78
2022/04/12 07:12:29;;;;;;;;;;;8.60;99.90;;;;;;4975414;28;19922;-78
2022/04/12 07:14:55;;;;;;;;;;;8.60;99.90;;;;;;4975335;28;20305;-78
2022/04/12 07:17:20;;;;;;;;;;;8.60;99.90;;;;;;4974974;28;19921;-78
2022/04/12 07:19:46;;;;;;;;;;;8.60;99.90;;;;;;4974882;28;20347;-78
2022/04/12 07:22:11;;;;;;;;;;;8.60;99.90;;;;;;4959347;28;20380;-78
2022/04/12 07:24:37;;;;;;;;;;;8.60;99.90;;;;;;4975330;28;19922;-78
2022/04/12 07:27:03;;;;;;;;;;;8.60;99.90;;;;;;4974817;28;19932;-78
2022/04/12 07:29:29;;;;;;;;;;;8.60;99.90;;;;;;4975501;28;19930;-78
2022/04/12 07:31:55;;;;;;;;;;;8.70;99.90;;;;;;4975219;28;20302;-78
2022/04/12 07:34:21;;;;;;;;;;;8.80;99.90;;;;;;4975778;28;19928;-80
2022/04/12 07:36:53;;;;;;;;;;;9.10;99.90;;;;;;4976546;28;19922;-79
2022/04/12 07:39:19;;;;;;;;;;;9.30;99.90;;;;;;4980484;28;19925;-79
2022/04/12 07:41:48;;;;;;;;;;;9.50;99.90;;;;;;4990043;28;19940;-80
2022/04/12 07:44:14;;;;;;;;;;;9.70;99.90;;;;;;4975246;28;19926;-80
2022/04/12 07:46:39;;;;;;;;;;;9.90;99.90;;;;;;4991287;28;19922;-80
2022/04/12 07:49:05;;;;;;;;;;;10.20;99.90;;;;;;4991024;28;19921;-81
2022/04/12 07:51:30;;;;;;;;;;;10.40;99.90;;;;;;4982749;28;20400;-78
2022/04/12 07:53:56;;;;;;;;;;;10.70;99.90;;;;;;4977698;28;19976;-78
2022/04/12 07:56:21;;;;;;;;;;;10.90;99.90;;;;;;4965373;28;19922;-79
2022/04/12 07:58:46;;;;;;;;;;;11.10;99.90;;;;;;4976799;28;19933;-79
2022/04/12 08:01:12;;;;;;;;;;;11.20;99.90;;;;;;4979121;28;19968;-78
2022/04/12 08:03:40;;;;;;;;;;;11.40;99.90;;;;;;4978257;28;19974;-79
2022/04/12 08:06:05;;;;;;;;;;;11.50;99.90;;;;;;4978964;28;19922;-78
2022/04/12 08:08:32;;;;;;;;;;;11.60;99.90;;;;;;4963475;28;20402;-79
2022/04/12 08:10:58;;;;;;;;;;;11.70;99.90;;;;;;4979667;28;19941;-79
2022/04/12 08:13:24;;;;;;;;;;;11.80;99.90;;;;;;4982957;28;19960;-81
2022/04/12 08:15:49;;;;;;;;;;;11.90;99.90;;;;;;5000625;28;19922;-79
2022/04/12 08:18:15;;;;;;;;;;;11.90;99.90;;;;;;4963854;28;20012;-79
2022/04/12 08:20:40;;;;;;;;;;;12.10;99.90;;;;;;4963961;28;19926;-79
2022/04/12 08:23:06;;;;;;;;;;;12.20;99.90;;;;;;4980650;28;19991;-79
2022/04/12 08:25:31;;;;;;;;;;;12.30;99.90;;;;;;4980318;28;19976;-79
2022/04/12 08:27:57;;;;;;;;;;;12.50;99.90;;;;;;4980594;28;19973;-79
2022/04/12 08:30:22;;;;;;;;;;;12.70;99.90;;;;;;4981347;28;20376;-79
2022/04/12 08:32:48;;;;;;;;;;;12.80;99.90;;;;;;4982441;28;19922;-79
2022/04/12 08:35:14;;;;;;;;;;;12.90;99.90;;;;;;4982220;28;19976;-79
2022/04/12 08:37:39;;;;;;;;;;;13.00;99.90;;;;;;4982598;28;19921;-79
2022/04/12 08:40:05;;;;;;;;;;;13.10;99.90;;;;;;4982321;28;20365;-81
2022/04/12 08:42:30;;;;;;;;;;;13.20;99.90;;;;;;4986002;28;19928;-81
2022/04/12 08:44:57;;;;;;;;;;;13.20;99.90;;;;;;4969904;28;19937;-81
2022/04/12 08:47:23;;;;;;;;;;;13.20;99.90;;;;;;4971267;28;19922;-81
2022/04/12 08:49:48;;;;;;;;;;;13.40;99.90;;;;;;5002880;28;19936;-80
2022/04/12 08:52:14;;;;;;;;;;;13.50;99.90;;;;;;4966055;28;20020;-79
2022/04/12 08:54:41;;;;;;;;;;;13.70;99.90;;;;;;4966750;28;19922;-79
2022/04/12 08:57:07;;;;;;;;;;;13.70;99.90;;;;;;4984233;28;19956;-81
2022/04/12 08:59:32;;;;;;;;;;;13.80;99.90;;;;;;4984216;28;20009;-81
2022/04/12 09:01:58;;;;;;;;;;;13.90;99.90;;;;;;4983954;28;19957;-81
2022/04/12 09:04:27;;;;;;;;;;;14.00;99.90;;;;;;4985058;28;20419;-81
2022/04/12 09:06:54;;;;;;;;;;;14.10;99.90;;;;;;4984492;28;19949;-81
2022/04/12 09:09:20;;;;;;;;;;;14.20;99.90;;;;;;4984570;28;19994;-81
2022/04/12 09:12:02;;;;;;;;;;;14.30;99.90;;;;;;4984390;28;19926;-82
2022/04/12 09:14:41;;;;;;;;;;;14.50;99.90;;;;;;4986394;28;20261;-82
2022/04/12 09:17:07;;;;;;;;;;;14.70;97.00;;;;;;4985701;28;20004;-81
2022/04/12 09:19:43;;;;;;;;;;;14.80;99.90;;;;;;4985084;28;20347;-79
2022/04/12 09:22:10;;;;;;;;;;;15.00;96.70;;;;;;4983690;28;20401;-79
2022/04/12 09:24:42;;;;;;;;;;;15.10;99.90;;;;;;4986630;28;20080;-80
2022/04/12 09:27:10;;;;;;;;;;;15.20;97.80;;;;;;4987863;28;20004;-80
2022/04/12 09:29:37;;;;;;;;;;;15.30;98.70;;;;;;4986567;28;19928;-80
2022/04/12 09:32:03;;;;;;;;;;;15.40;97.00;;;;;;4986094;28;19922;-79
2022/04/12 09:34:28;;;;;;;;;;;15.30;93.80;;;;;;4969378;28;19922;-76
2022/04/12 09:36:54;;;;;;;;;;;15.50;94.10;;;;;;4994299;28;19947;-75
2022/04/12 09:39:19;;;;;;;;;;;15.60;99.90;;;;;;4976490;28;19922;-75
2022/04/12 09:41:48;;;;;;;;;;;15.80;92.50;;;;;;4976395;28;20299;-75
2022/04/12 09:44:17;;;;;;;;;;;15.90;97.80;;;;;;4976404;28;20350;-76
2022/04/12 09:46:43;;;;;;;;;;;16.00;95.90;;;;;;4979459;28;20368;-76
2022/04/12 09:49:09;;;;;;;;;;;16.00;88.20;;;;;;4964486;28;19968;-76
2022/04/12 09:51:38;;;;;;;;;;;16.00;95.30;;;;;;4976495;28;19936;-76
2022/04/12 09:54:06;;;;;;;;;;;15.90;98.10;;;;;;4976446;28;19928;-76
2022/04/12 09:56:31;;;;;;;;;;;16.10;94.20;;;;;;4989338;28;20454;-75
2022/04/12 09:58:58;;;;;;;;;;;16.20;89.60;;;;;;4970099;28;19922;-76
2022/04/12 10:01:24;;;;;;;;;;;16.40;91.50;;;;;;4966812;28;19922;-76
2022/04/12 10:03:52;;;;;;;;;;;16.40;92.30;;;;;;4975928;28;20024;-78
2022/04/12 10:06:23;;;;;;;;;;;16.50;95.80;;;;;;4983512;28;19922;-81
2022/04/12 10:08:56;;;;;;;;;;;16.70;92.70;;;;;;4987979;28;19921;-81
2022/04/12 10:11:22;;;;;;;;;;;16.90;71.80;;;;;;4987080;28;19925;-81
2022/04/12 10:13:48;;;;;;;;;;;17.00;85.60;;;;;;4985969;28;20475;-81
2022/04/12 10:16:17;;;;;;;;;;;17.10;91.90;;;;;;4970774;28;19969;-81
2022/04/12 10:18:44;;;;;;;;;;;17.10;81.30;;;;;;4987469;28;19929;-81
2022/04/12 10:21:11;;;;;;;;;;;17.30;90.20;;;;;;4987625;28;19933;-81
2022/04/12 10:23:37;;;;;;;;;;;17.50;89.00;;;;;;4985580;28;20012;-81
2022/04/12 10:26:03;;;;;;;;;;;17.70;66.40;;;;;;4985226;28;19926;-80
2022/04/12 10:28:29;;;;;;;;;;;17.70;64.50;;;;;;4985732;28;20008;-80
2022/04/12 10:31:21;;;;;;;;;;;17.70;66.20;;;;;;4984741;28;19948;-81
2022/04/12 10:33:50;;;;;;;;;;;17.60;70.60;;;;;;4982158;28;19928;-80
2022/04/12 10:36:16;;;;;;;;;;;17.60;73.50;;;;;;5001986;28;19965;-80
2022/04/12 10:38:42;;;;;;;;;;;17.70;72.80;;;;;;4984727;28;19940;-80
2022/04/12 10:41:37;;;;;;;;;;;17.70;77.50;;;;;;4985294;28;19922;-80
2022/04/12 10:44:03;;;;;;;;;;;17.80;69.50;;;;;;4968481;28;19922;-81
2022/04/12 10:46:46;;;;;;;;;;;18.10;67.00;;;;;;4984484;28;19976;-80
2022/04/12 10:49:12;;;;;;;;;;;18.30;65.00;;;;;;4984711;28;19922;-80
2022/04/12 10:51:38;;;;;;;;;;;18.50;74.30;;;;;;4985149;28;19933;-80
2022/04/12 10:54:04;;;;;;;;;;;18.70;71.10;;;;;;4983626;28;19922;-81
2022/04/12 10:56:30;;;;;;;;;;;18.70;64.10;;;;;;4982686;28;19928;-81
2022/04/12 10:58:55;;;;;;;;;;;18.70;67.70;;;;;;4967474;28;19997;-80
2022/04/12 11:01:32;;;;;;;;;;;18.80;70.30;;;;;;4984233;28;19922;-81
2022/04/12 11:04:00;;;;;;;;;;;18.90;68.60;;;;;;4983824;28;19928;-81
2022/04/12 11:06:30;;;;;;;;;;;19.10;66.00;;;;;;4983677;28;19922;-81
2022/04/12 11:09:07;;;;;;;;;;;19.20;69.90;;;;;;4984113;28;19929;-81
2022/04/12 11:11:40;;;;;;;;;;;19.20;64.60;;;;;;4981915;28;19926;-81
2022/04/12 11:14:21;;;;;;;;;;;19.20;63.70;;;;;;4967801;28;20009;-81
2022/04/12 11:16:53;;;;;;;;;;;19.30;62.30;;;;;;4983072;28;19932;-83
2022/04/12 11:19:20;;;;;;;;;;;19.40;64.10;;;;;;4983848;28;19929;-82
2022/04/12 11:21:49;;;;;;;;;;;19.40;56.20;;;;;;4981709;28;20417;-82
2022/04/12 11:24:15;;;;;;;;;;;19.40;56.00;;;;;;4983134;28;19957;-82
2022/04/12 11:26:45;;;;;;;;;;;19.70;64.00;;;;;;4980786;28;19925;-82
2022/04/12 11:29:11;;;;;;;;;;;19.90;61.00;;;;;;4999841;28;20280;-82
2022/04/12 11:31:40;;;;;;;;;;;20.20;61.70;;;;;;4982275;28;19957;-82
2022/04/12 11:34:06;;;;;;;;;;;20.50;57.20;;;;;;4966187;28;19968;-81
2022/04/12 11:36:32;;;;;;;;;;;20.60;55.00;;;;;;5026203;23;20401;-79
2022/04/12 11:38:57;;;;;;;;;;;20.60;55.00;;;;;;4994963;28;19953;-79
2022/04/12 11:41:23;;;;;;;;;;;20.50;53.20;;;;;;4995033;28;20015;-80
2022/04/12 11:43:57;;;;;;;;;;;20.60;56.20;;;;;;4995836;28;19936;-79
2022/04/12 11:46:23;;;;;;;;;;;20.70;56.20;;;;;;4994707;28;19922;-79
2022/04/12 11:48:48;;;;;;;;;;;20.80;55.50;;;;;;4995887;28;19921;-78
2022/04/12 11:51:16;;;;;;;;;;;20.90;54.10;;;;;;4994942;28;19936;-79
2022/04/12 11:53:46;;;;;;;;;;;20.80;54.00;;;;;;4996139;28;19921;-80
2022/04/12 11:56:11;;;;;;;;;;;20.70;54.60;;;;;;4985324;28;19922;-78
2022/04/12 11:58:37;;;;;;;;;;;20.60;56.50;;;;;;4959825;28;20025;-79
2022/04/12 12:01:03;;;;;;;;;;;20.50;55.20;;;;;;4976129;28;20005;-78
2022/04/12 12:03:30;;;;;;;;;;;20.30;53.40;;;;;;4960066;28;20016;-79
2022/04/12 12:05:57;;;;;;;;;;;20.20;54.80;;;;;;4959762;28;19933;-79
2022/04/12 12:08:22;;;;;;;;;;;20.40;56.80;;;;;;4975673;28;19936;-79
2022/04/12 12:10:52;;;;;;;;;;;20.50;55.30;;;;;;4975370;28;19930;-79
2022/04/12 12:13:17;;;;;;;;;;;20.40;53.90;;;;;;4975545;28;19925;-79
2022/04/12 12:15:44;;;;;;;;;;;20.50;54.50;;;;;;4974783;28;19928;-79
2022/04/12 12:18:10;;;;;;;;;;;20.60;55.90;;;;;;4975713;28;19922;-79
2022/04/12 12:20:36;;;;;;;;;;;20.50;54.70;;;;;;4976816;28;19922;-79
2022/04/12 12:23:06;;;;;;;;;;;20.50;57.50;;;;;;4975966;28;19921;-79
2022/04/12 12:25:43;;;;;;;;;;;20.40;55.10;;;;;;4959087;28;19922;-79
2022/04/12 12:28:09;;;;;;;;;;;20.30;54.50;;;;;;4959442;28;20307;-79
2022/04/12 12:30:35;;;;;;;;;;;20.40;56.30;;;;;;4977725;28;20418;-79
2022/04/12 12:33:00;;;;;;;;;;;20.60;55.60;;;;;;4977212;28;19932;-79
2022/04/12 12:35:28;;;;;;;;;;;20.80;53.90;;;;;;4980737;28;20012;-79
2022/04/12 12:38:12;;;;;;;;;;;21.10;52.30;;;;;;4963510;28;19922;-80
2022/04/12 12:40:38;;;;;;;;;;;21.30;52.50;;;;;;4981117;28;19926;-79
2022/04/12 12:43:04;;;;;;;;;;;21.50;52.90;;;;;;4980226;28;19961;-79
2022/04/12 12:45:30;;;;;;;;;;;21.70;52.90;;;;;;4981066;28;19930;-80
2022/04/12 12:47:57;;;;;;;;;;;21.70;53.70;;;;;;4991307;28;20028;-79
2022/04/12 12:50:24;;;;;;;;;;;21.60;51.60;;;;;;5001072;28;20395;-80
2022/04/12 12:52:56;;;;;;;;;;;21.70;53.50;;;;;;4998569;28;19921;-80
2022/04/12 12:55:23;;;;;;;;;;;21.80;53.30;;;;;;4999984;28;19922;-80
2022/04/12 12:57:49;;;;;;;;;;;22.10;55.10;;;;;;4999294;28;20283;-80
2022/04/12 13:00:16;;;;;;;;;;;22.30;50.80;;;;;;5004300;28;19936;-80
2022/04/12 13:02:42;;;;;;;;;;;22.50;51.00;;;;;;5002336;28;19944;-80
2022/04/12 13:05:08;;;;;;;;;;;22.60;50.30;;;;;;5004145;28;19925;-79
2022/04/12 13:07:35;;;;;;;;;;;22.80;49.60;;;;;;5003493;28;19984;-79
2022/04/12 13:10:14;;;;;;;;;;;23.00;49.90;;;;;;5003420;28;19933;-80
2022/04/12 13:12:40;;;;;;;;;;;23.00;49.50;;;;;;4987286;28;20355;-80
2022/04/12 13:15:07;;;;;;;;;;;23.10;50.80;;;;;;5002318;28;20073;-80
2022/04/12 13:17:32;;;;;;;;;;;23.40;49.60;;;;;;5003614;28;19921;-80
2022/04/12 13:19:58;;;;;;;;;;;23.40;48.00;;;;;;5001979;28;20020;-80
2022/04/12 13:22:24;;;;;;;;;;;23.40;47.20;;;;;;4968333;28;20291;-79
2022/04/12 13:24:49;;;;;;;;;;;23.60;48.10;;;;;;4981777;28;19945;-78
2022/04/12 13:27:15;;;;;;;;;;;23.50;47.60;;;;;;4968867;28;19922;-79
2022/04/12 13:29:41;;;;;;;;;;;23.40;48.70;;;;;;4982720;28;20379;-79
2022/04/12 13:32:06;;;;;;;;;;;23.20;48.10;;;;;;4984869;28;19977;-79
2022/04/12 13:34:32;;;;;;;;;;;22.90;48.30;;;;;;4966465;28;19922;-78
2022/04/12 13:36:57;;;;;;;;;;;22.80;50.40;;;;;;4983726;28;19929;-80
2022/04/12 13:39:23;;;;;;;;;;;22.70;48.80;;;;;;4982044;28;19921;-79
2022/04/12 13:41:49;;;;;;;;;;;22.50;50.50;;;;;;4966894;28;19921;-79
2022/04/12 13:44:14;;;;;;;;;;;22.50;51.90;;;;;;4981880;28;19925;-79
2022/04/12 13:46:43;;;;;;;;;;;22.30;52.70;;;;;;4966199;28;19955;-79
2022/04/12 13:49:08;;;;;;;;;;;22.20;51.10;;;;;;4983076;28;20296;-79
2022/04/12 13:51:34;;;;;;;;;;;21.90;54.10;;;;;;4981783;28;20588;-79
2022/04/12 13:54:00;;;;;;;;;;;21.60;56.40;;;;;;4993778;28;19922;-80
2022/04/12 13:56:25;;;;;;;;;;;21.40;56.60;;;;;;4984682;28;20462;-78
2022/04/12 13:58:51;;;;;;;;;;;21.20;53.10;;;;;;5000710;28;19921;-79
2022/04/12 14:01:16;;;;;;;;;;;21.20;56.10;;;;;;5001105;28;19953;-79
2022/04/12 14:03:42;;;;;;;;;;;21.40;56.50;;;;;;5020058;28;19921;-79
2022/04/12 14:06:07;;;;;;;;;;;21.20;55.40;;;;;;4984238;28;20383;-79
2022/04/12 14:08:35;;;;;;;;;;;21.10;56.40;;;;;;5001109;28;20360;-79
2022/04/12 14:11:01;;;;;;;;;;;21.00;56.60;;;;;;4989170;28;19934;-79
2022/04/12 14:13:26;;;;;;;;;;;20.90;56.60;;;;;;4981623;28;19930;-79
2022/04/12 14:15:52;;;;;;;;;;;20.80;58.30;;;;;;4980893;28;19922;-78
2022/04/12 14:18:17;;;;;;;;;;;20.70;59.20;;;;;;4982228;28;19929;-79
2022/04/12 14:20:44;;;;;;;;;;;20.50;60.60;;;;;;4980849;28;19929;-78